Time;durP1;ratioP1;P1;durP2;ratioP2;P2;SDS_P1;SDS_P2;PMS_P1;PMS_P2;Temp;Humidity;BMP_temperature;BMP_pressure;BME280_temperature;BME280_humidity;BME280_pressure;Samples;Min_cycle;Max_cycle;Signal;HPM_P1;HPM_P2
2023/01/04 00:01:30;;;;;;;4.10;3.80;;;22.20;59.20;;;;;;4933415;29;20558;-80
2023/01/04 00:03:58;;;;;;;3.93;3.63;;;22.20;59.20;;;;;;4932458;29;20858;-80
2023/01/04 00:06:28;;;;;;;4.37;4.00;;;22.20;59.20;;;;;;4930769;29;20997;-80
2023/01/04 00:08:56;;;;;;;3.60;3.30;;;22.20;59.20;;;;;;4934522;29;20456;-81
2023/01/04 00:11:25;;;;;;;4.63;4.23;;;22.20;59.20;;;;;;4933268;29;20508;-80
2023/01/04 00:13:57;;;;;;;3.90;3.60;;;22.20;59.20;;;;;;4927409;29;21045;-81
2023/01/04 00:16:28;;;;;;;4.80;3.90;;;22.20;59.20;;;;;;4933846;29;20558;-81
2023/01/04 00:18:57;;;;;;;3.87;3.47;;;22.20;59.10;;;;;;4931445;29;20519;-81
2023/01/04 00:21:28;;;;;;;4.10;3.80;;;22.20;59.20;;;;;;4926606;29;20451;-80
2023/01/04 00:23:59;;;;;;;4.73;3.63;;;22.10;59.20;;;;;;4929016;29;20516;-81
2023/01/04 00:26:29;;;;;;;3.90;3.23;;;22.10;59.10;;;;;;4936441;29;20483;-80
2023/01/04 00:28:59;;;;;;;3.80;3.50;;;22.10;59.10;;;;;;4932702;29;20480;-80
2023/01/04 00:31:28;;;;;;;3.67;3.37;;;22.10;59.10;;;;;;4932361;29;20582;-80
2023/01/04 00:33:58;;;;;;;3.37;3.07;;;22.10;59.10;;;;;;4935642;29;20531;-80
2023/01/04 00:36:28;;;;;;;3.50;3.30;;;22.10;59.10;;;;;;4927734;29;20445;-80
2023/01/04 00:39:08;;;;;;;2.80;2.60;;;22.10;59.10;;;;;;4929530;29;20543;-80
2023/01/04 00:41:39;;;;;;;3.40;3.10;;;22.10;59.10;;;;;;4934884;29;20456;-80
2023/01/04 00:44:27;;;;;;;3.60;3.30;;;22.10;59.10;;;;;;4933320;29;20452;-82
2023/01/04 00:46:55;;;;;;;3.70;3.40;;;22.10;59.10;;;;;;4925335;29;20532;-80
2023/01/04 00:49:23;;;;;;;3.40;3.20;;;22.10;59.10;;;;;;4930899;29;20944;-81
2023/01/04 00:51:53;;;;;;;3.40;3.20;;;22.10;59.10;;;;;;4931166;29;20507;-80
2023/01/04 00:54:22;;;;;;;2.87;2.67;;;22.10;59.20;;;;;;4933473;29;20978;-81
2023/01/04 00:56:50;;;;;;;3.23;3.03;;;22.10;59.20;;;;;;4922823;29;20484;-80
2023/01/04 00:59:20;;;;;;;3.07;2.83;;;22.10;59.10;;;;;;4924010;29;20484;-81
2023/01/04 01:01:50;;;;;;;2.90;2.53;;;22.10;59.10;;;;;;4927923;29;20919;-80
2023/01/04 01:04:20;;;;;;;2.73;2.53;;;22.10;59.10;;;;;;4935089;29;20543;-80
2023/01/04 01:06:49;;;;;;;3.13;2.93;;;22.10;59.10;;;;;;4939126;29;20464;-80
2023/01/04 01:09:23;;;;;;;3.17;2.97;;;22.20;59.00;;;;;;4927423;29;20538;-80
2023/01/04 01:11:52;;;;;;;2.50;2.30;;;22.20;59.00;;;;;;4929310;29;20464;-80
2023/01/04 01:14:22;;;;;;;2.50;2.40;;;22.20;59.00;;;;;;4926916;29;20517;-80
2023/01/04 01:16:51;;;;;;;2.33;2.23;;;22.20;59.00;;;;;;4927000;28;20470;-81
2023/01/04 01:19:24;;;;;;;2.50;2.30;;;22.20;59.00;;;;;;4932879;29;21437;-80
2023/01/04 01:21:53;;;;;;;2.80;2.60;;;22.20;59.00;;;;;;4935837;29;20562;-81
2023/01/04 01:24:22;;;;;;;2.87;2.47;;;22.20;59.00;;;;;;4933656;29;20467;-81
2023/01/04 01:26:50;;;;;;;2.40;2.30;;;22.20;59.00;;;;;;4934005;29;20999;-81
2023/01/04 01:29:19;;;;;;;2.53;2.33;;;22.20;59.00;;;;;;4928112;29;20519;-80
2023/01/04 01:31:47;;;;;;;2.70;2.50;;;22.20;58.90;;;;;;4927957;29;20494;-80
2023/01/04 01:34:15;;;;;;;2.50;2.30;;;22.20;58.90;;;;;;4940397;29;20481;-80
2023/01/04 01:36:43;;;;;;;3.00;2.73;;;22.20;58.80;;;;;;4934353;29;20991;-80
2023/01/04 01:39:11;;;;;;;2.37;2.23;;;22.20;58.80;;;;;;4930424;29;20527;-80
2023/01/04 01:41:41;;;;;;;2.43;2.23;;;22.20;58.70;;;;;;4924104;29;20498;-80
2023/01/04 01:44:42;;;;;;;2.53;2.40;;;22.20;58.70;;;;;;4926779;29;20455;-80
2023/01/04 01:47:13;;;;;;;2.70;2.50;;;22.20;58.60;;;;;;4927082;29;20457;-80
2023/01/04 01:49:43;;;;;;;2.57;2.40;;;22.20;58.70;;;;;;4928491;29;20537;-82
2023/01/04 01:52:16;;;;;;;1.80;1.70;;;22.20;58.80;;;;;;4931980;29;20480;-80
2023/01/04 01:54:48;;;;;;;2.60;2.40;;;22.20;58.80;;;;;;4928505;29;20937;-80
2023/01/04 01:57:22;;;;;;;2.60;2.10;;;22.20;58.50;;;;;;4932073;29;20473;-81
2023/01/04 01:59:53;;;;;;;2.00;1.90;;;22.20;58.70;;;;;;4925837;29;20544;-80
2023/01/04 02:02:21;;;;;;;2.60;2.40;;;22.20;58.70;;;;;;4929008;29;20471;-80
2023/01/04 02:04:55;;;;;;;2.43;2.23;;;22.20;58.50;;;;;;4936076;29;20467;-80
2023/01/04 02:07:27;;;;;;;1.80;1.70;;;22.20;58.80;;;;;;4935399;29;20487;-80
2023/01/04 02:09:56;;;;;;;1.80;1.70;;;22.10;58.80;;;;;;4935517;29;20460;-80
2023/01/04 02:12:26;;;;;;;1.97;1.87;;;22.10;58.80;;;;;;4932274;29;21030;-81
2023/01/04 02:14:54;;;;;;;2.43;2.27;;;22.20;58.80;;;;;;4932501;29;20490;-80
2023/01/04 02:17:34;;;;;;;1.60;1.53;;;22.10;58.60;;;;;;4937881;29;20438;-81
2023/01/04 02:20:24;;;;;;;2.00;1.90;;;22.10;58.70;;;;;;4933783;28;20459;-82
2023/01/04 02:23:23;;;;;;;1.83;1.73;;;22.10;58.20;;;;;;4935676;29;20492;-81
2023/01/04 02:26:33;;;;;;;2.17;2.00;;;22.10;58.30;;;;;;4935597;29;20570;-80
2023/01/04 02:30:01;;;;;;;2.03;1.93;;;22.10;58.10;;;;;;4887675;29;20474;-81
2023/01/04 02:32:42;;;;;;;1.90;1.80;;;22.10;58.60;;;;;;4877116;29;20469;-80
2023/01/04 02:35:17;;;;;;;2.67;2.43;;;22.10;58.20;;;;;;4883464;29;20482;-79
2023/01/04 02:37:50;;;;;;;2.03;1.93;;;22.10;58.10;;;;;;4916376;29;20921;-80
2023/01/04 02:40:23;;;;;;;2.17;2.07;;;22.10;58.30;;;;;;4935470;29;20506;-81
2023/01/04 02:45:48;;;;;;;2.37;2.17;;;22.10;58.30;;;;;;4935508;29;20550;-80
2023/01/04 02:51:03;;;;;;;1.90;1.80;;;22.10;58.40;;;;;;4929759;29;20468;-80
2023/01/04 02:53:35;;;;;;;2.33;2.13;;;22.00;58.40;;;;;;4930887;29;20986;-81
2023/01/04 02:56:13;;;;;;;2.10;2.00;;;22.00;58.10;;;;;;4935643;29;20483;-80
2023/01/04 02:58:57;;;;;;;2.80;2.60;;;22.00;58.10;;;;;;4934864;29;20448;-81
2023/01/04 03:07:27;;;;;;;1.80;1.70;;;22.00;58.70;;;;;;4927356;29;20452;-80
2023/01/04 03:10:15;;;;;;;1.73;1.63;;;22.00;58.20;;;;;;4919706;29;20867;-81
2023/01/04 03:12:46;;;;;;;1.77;1.60;;;22.00;58.40;;;;;;4924056;29;20464;-80
2023/01/04 03:15:19;;;;;;;2.80;2.43;;;22.00;58.40;;;;;;4936841;29;20476;-80
2023/01/04 03:17:52;;;;;;;2.30;2.10;;;22.00;58.40;;;;;;4929880;29;20981;-80
2023/01/04 03:20:24;;;;;;;1.50;1.40;;;22.00;58.30;;;;;;4935111;29;20456;-80
2023/01/04 03:37:07;;;;;;;1.90;1.80;;;22.00;58.50;;;;;;4936179;28;20897;-80
2023/01/04 03:48:30;;;;;;;2.00;1.80;;;21.90;58.20;;;;;;4933675;29;20449;-81
2023/01/04 03:51:05;;;;;;;1.50;1.40;;;21.90;58.20;;;;;;4923233;29;20452;-80
2023/01/04 03:53:43;;;;;;;2.20;2.10;;;21.90;58.20;;;;;;4935713;29;20503;-80
2023/01/04 03:56:12;;;;;;;1.37;1.30;;;21.90;58.10;;;;;;4945380;29;20522;-79
2023/01/04 03:58:40;;;;;;;1.33;1.33;;;21.90;58.50;;;;;;4938117;28;20467;-80
2023/01/04 04:01:09;;;;;;;1.47;1.37;;;21.90;58.60;;;;;;4942520;29;20546;-80
2023/01/04 04:09:09;;;;;;;1.80;1.70;;;21.90;58.10;;;;;;4932081;29;20565;-82
2023/01/04 04:11:38;;;;;;;1.50;1.40;;;21.90;58.10;;;;;;4931799;29;20472;-80
2023/01/04 04:14:06;;;;;;;1.67;1.57;;;21.90;58.10;;;;;;4927246;29;20477;-79
2023/01/04 04:16:34;;;;;;;1.27;1.17;;;21.90;58.30;;;;;;4939310;29;20578;-81
2023/01/04 04:19:02;;;;;;;1.03;1.00;;;21.90;58.60;;;;;;4923405;29;20810;-80
2023/01/04 04:21:36;;;;;;;1.30;1.27;;;21.90;58.60;;;;;;4931839;29;20951;-80
2023/01/04 04:24:05;;;;;;;1.30;1.20;;;21.90;58.60;;;;;;4925920;29;20447;-80
2023/01/04 04:26:35;;;;;;;1.30;1.20;;;21.90;58.40;;;;;;4936380;29;20523;-80
2023/01/04 04:29:03;;;;;;;1.63;1.53;;;22.00;58.10;;;;;;4926694;29;20874;-80
2023/01/04 04:31:31;;;;;;;1.57;1.47;;;22.00;58.10;;;;;;4937515;29;20447;-80
2023/01/04 04:33:59;;;;;;;1.53;1.43;;;22.00;58.50;;;;;;4929377;29;20521;-80
2023/01/04 04:36:27;;;;;;;1.73;1.63;;;22.00;57.90;;;;;;4937207;28;20966;-80
2023/01/04 04:38:55;;;;;;;1.70;1.60;;;22.00;57.90;;;;;;4932058;29;20571;-80
2023/01/04 04:41:37;;;;;;;1.30;1.20;;;22.00;58.40;;;;;;4930443;29;20559;-81
2023/01/04 04:44:09;;;;;;;1.40;1.30;;;22.00;58.00;;;;;;4932363;29;20445;-80
2023/01/04 04:46:37;;;;;;;1.10;1.00;;;22.00;58.10;;;;;;4935906;29;20452;-80
2023/01/04 04:49:06;;;;;;;1.47;1.37;;;22.00;58.30;;;;;;4942602;28;21171;-80
2023/01/04 04:51:35;;;;;;;1.70;1.53;;;22.00;57.90;;;;;;4936903;29;20521;-80
2023/01/04 04:54:04;;;;;;;2.03;1.90;;;21.90;58.30;;;;;;4937361;29;20456;-80
2023/01/04 04:56:32;;;;;;;1.30;1.20;;;21.90;58.20;;;;;;4941386;28;20487;-80
2023/01/04 04:59:00;;;;;;;1.50;1.40;;;21.90;58.10;;;;;;4929189;29;20541;-80
2023/01/04 05:01:30;;;;;;;0.93;0.93;;;21.90;58.40;;;;;;4935915;29;20951;-80
2023/01/04 05:03:58;;;;;;;1.53;1.40;;;21.90;58.20;;;;;;4936889;29;20837;-81
2023/01/04 05:06:26;;;;;;;1.27;1.17;;;22.00;58.00;;;;;;4937689;29;20976;-80
2023/01/04 05:08:55;;;;;;;1.37;1.27;;;21.90;58.20;;;;;;4938360;29;20538;-80
2023/01/04 05:14:05;;;;;;;1.40;1.30;;;21.90;58.20;;;;;;4936317;29;20465;-80
2023/01/04 05:16:34;;;;;;;1.27;1.17;;;21.90;58.00;;;;;;4937813;29;20485;-80
2023/01/04 05:19:03;;;;;;;1.67;1.57;;;21.90;57.80;;;;;;4932270;29;20463;-80
2023/01/04 05:21:31;;;;;;;1.50;1.40;;;21.90;58.00;;;;;;4921998;29;20851;-83
2023/01/04 05:23:59;;;;;;;1.50;1.40;;;21.90;57.90;;;;;;4936286;29;20467;-80
2023/01/04 05:26:27;;;;;;;1.47;1.37;;;21.90;57.80;;;;;;4936335;29;20475;-80
2023/01/04 05:28:56;;;;;;;1.57;1.47;;;21.90;57.70;;;;;;4934958;29;20482;-81
2023/01/04 05:31:24;;;;;;;1.40;1.30;;;21.90;57.60;;;;;;4936408;29;20554;-80
2023/01/04 05:33:53;;;;;;;1.63;1.47;;;21.90;57.60;;;;;;4929877;29;20462;-80
2023/01/04 05:36:21;;;;;;;2.27;2.07;;;21.90;57.70;;;;;;4938444;29;20501;-81
2023/01/04 05:38:49;;;;;;;0.90;0.90;;;21.90;57.70;;;;;;4939212;28;20583;-80
2023/01/04 05:44:03;;;;;;;1.30;1.20;;;21.90;57.90;;;;;;4932964;29;21055;-80
2023/01/04 05:46:31;;;;;;;1.40;1.30;;;21.90;57.80;;;;;;4918145;29;20496;-80
2023/01/04 05:49:01;;;;;;;2.30;2.10;;;21.90;58.20;;;;;;4932608;29;20468;-81
2023/01/04 05:51:29;;;;;;;1.30;1.20;;;21.90;57.90;;;;;;4935156;29;20462;-80
2023/01/04 05:53:57;;;;;;;1.23;1.13;;;21.90;57.80;;;;;;4927199;29;20485;-80
2023/01/04 05:56:25;;;;;;;1.70;1.40;;;21.90;57.60;;;;;;4938854;29;20857;-80
2023/01/04 05:58:54;;;;;;;1.63;1.53;;;21.90;57.70;;;;;;4927794;29;20474;-81
2023/01/04 06:01:22;;;;;;;0.93;0.93;;;21.90;57.60;;;;;;4932589;29;20496;-80
2023/01/04 06:03:50;;;;;;;1.73;1.63;;;21.90;58.10;;;;;;4919250;29;20523;-79
2023/01/04 06:06:20;;;;;;;2.03;1.83;;;21.90;57.70;;;;;;4939206;29;20692;-80
2023/01/04 06:08:48;;;;;;;2.10;1.30;;;21.90;57.60;;;;;;4938229;29;20465;-80
2023/01/04 06:11:16;;;;;;;1.60;1.50;;;21.80;57.60;;;;;;4922751;29;20968;-80
2023/01/04 06:13:51;;;;;;;1.50;1.40;;;21.80;57.60;;;;;;4934880;29;20531;-80
2023/01/04 06:16:19;;;;;;;1.40;1.30;;;21.80;57.70;;;;;;4929429;29;20516;-80
2023/01/04 06:18:47;;;;;;;1.67;1.57;;;21.80;57.70;;;;;;4929168;29;20532;-80
2023/01/04 06:21:15;;;;;;;1.47;1.37;;;21.80;57.70;;;;;;4935475;29;20804;-80
2023/01/04 06:23:45;;;;;;;1.20;1.00;;;21.70;57.80;;;;;;4935229;29;20895;-81
2023/01/04 06:26:13;;;;;;;1.77;1.67;;;21.70;57.90;;;;;;4936441;29;20581;-80
2023/01/04 06:28:41;;;;;;;1.30;1.20;;;21.70;57.90;;;;;;4926686;29;20503;-81
2023/01/04 06:31:10;;;;;;;1.20;1.20;;;21.70;57.90;;;;;;4927054;29;21011;-80
2023/01/04 06:33:39;;;;;;;1.40;1.30;;;21.70;58.00;;;;;;4938722;29;20571;-80
2023/01/04 06:36:07;;;;;;;1.13;1.13;;;21.70;57.90;;;;;;4935246;29;20471;-81
2023/01/04 06:38:49;;;;;;;1.50;1.40;;;21.70;57.80;;;;;;4929505;29;20515;-81
2023/01/04 06:41:17;;;;;;;1.20;1.10;;;21.70;58.00;;;;;;4930494;29;20559;-80
2023/01/04 06:43:45;;;;;;;1.67;1.57;;;21.60;58.10;;;;;;4934801;29;20535;-80
2023/01/04 06:46:13;;;;;;;1.27;1.17;;;21.60;58.20;;;;;;4935532;29;20465;-80
2023/01/04 06:48:42;;;;;;;1.50;1.40;;;21.70;58.10;;;;;;4935153;29;20470;-81
2023/01/04 06:51:10;;;;;;;1.60;1.50;;;21.70;58.20;;;;;;4931756;29;20466;-80
2023/01/04 06:53:38;;;;;;;1.93;1.77;;;21.70;58.00;;;;;;4932460;29;20502;-80
2023/01/04 06:56:08;;;;;;;1.13;1.07;;;21.70;58.00;;;;;;4928090;29;20481;-80
2023/01/04 06:58:37;;;;;;;0.90;0.90;;;21.70;57.90;;;;;;4932332;29;20562;-80
2023/01/04 07:01:05;;;;;;;1.03;1.03;;;21.70;58.10;;;;;;4930402;29;20471;-80
2023/01/04 07:03:34;;;;;;;1.17;1.07;;;21.80;57.80;;;;;;4929470;29;20459;-80
2023/01/04 07:06:05;;;;;;;1.20;1.20;;;21.80;58.20;;;;;;4928417;29;20464;-80
2023/01/04 07:08:35;;;;;;;1.40;1.30;;;21.80;58.00;;;;;;4936526;29;20460;-81
2023/01/04 07:11:03;;;;;;;1.23;1.13;;;21.80;57.70;;;;;;4930899;29;20464;-81
2023/01/04 07:13:33;;;;;;;1.63;1.53;;;21.80;57.60;;;;;;4934573;29;20439;-80
2023/01/04 07:16:01;;;;;;;2.13;1.93;;;21.80;57.50;;;;;;4926965;28;20542;-80
2023/01/04 07:18:29;;;;;;;1.87;1.50;;;21.80;57.50;;;;;;4936533;29;20465;-80
2023/01/04 07:20:57;;;;;;;1.57;1.47;;;21.80;57.50;;;;;;4930315;28;20470;-80
2023/01/04 07:23:25;;;;;;;1.43;1.33;;;21.80;57.50;;;;;;4926124;29;20553;-80
2023/01/04 07:25:54;;;;;;;1.37;1.27;;;21.80;57.70;;;;;;4930776;29;20576;-81
2023/01/04 07:31:10;;;;;;;1.13;1.03;;;21.80;57.50;;;;;;4930219;29;20468;-81
2023/01/04 07:33:38;;;;;;;1.33;0.87;;;21.80;57.50;;;;;;4933622;29;20456;-81
2023/01/04 07:36:07;;;;;;;1.17;1.07;;;21.70;57.70;;;;;;4929471;29;20826;-80
2023/01/04 07:38:36;;;;;;;1.10;1.00;;;21.70;57.70;;;;;;4930665;29;20906;-81
2023/01/04 07:41:04;;;;;;;0.90;0.90;;;21.70;57.90;;;;;;4935323;29;20463;-81
2023/01/04 07:43:32;;;;;;;1.17;1.10;;;21.70;57.70;;;;;;4930832;29;20456;-80
2023/01/04 07:46:01;;;;;;;1.20;1.10;;;21.70;58.00;;;;;;4936529;29;20460;-80
2023/01/04 07:48:30;;;;;;;1.30;1.10;;;21.70;58.10;;;;;;4932704;28;20456;-80
2023/01/04 07:50:58;;;;;;;1.87;1.27;;;21.70;58.10;;;;;;4937398;29;20801;-80
2023/01/04 07:53:26;;;;;;;1.03;1.03;;;21.70;58.00;;;;;;4946339;29;20823;-81
2023/01/04 07:55:56;;;;;;;1.23;1.10;;;21.70;58.00;;;;;;4929611;28;20464;-81
2023/01/04 07:58:27;;;;;;;1.47;1.00;;;21.70;58.20;;;;;;4934346;29;20567;-81
2023/01/04 08:00:56;;;;;;;0.80;0.80;;;21.70;58.30;;;;;;4927638;29;20494;-81
2023/01/04 08:03:24;;;;;;;1.40;1.37;;;21.70;58.30;;;;;;4937642;29;20503;-81
2023/01/04 08:05:54;;;;;;;1.43;1.33;;;21.70;58.00;;;;;;4924919;28;20566;-81
2023/01/04 08:08:22;;;;;;;1.27;0.90;;;21.80;58.00;;;;;;4936965;29;20466;-82
2023/01/04 08:10:50;;;;;;;1.37;1.27;;;21.80;58.40;;;;;;4928033;29;20542;-80
2023/01/04 08:13:18;;;;;;;1.40;1.30;;;21.80;58.10;;;;;;4937604;29;20540;-81
2023/01/04 08:15:52;;;;;;;1.10;1.10;;;21.80;58.30;;;;;;4928871;28;20463;-80
2023/01/04 08:18:20;;;;;;;1.40;1.30;;;21.80;58.30;;;;;;4933102;29;20468;-80
2023/01/04 08:20:48;;;;;;;1.00;1.00;;;21.90;57.90;;;;;;4925915;29;20885;-81
2023/01/04 08:23:26;;;;;;;0.83;0.83;;;21.90;58.30;;;;;;4930357;29;20857;-81
2023/01/04 08:25:54;;;;;;;1.20;1.10;;;21.90;58.20;;;;;;4933628;29;20922;-81
2023/01/04 08:28:23;;;;;;;1.20;1.13;;;22.00;58.20;;;;;;4931833;29;20546;-81
2023/01/04 08:30:51;;;;;;;2.00;1.70;;;21.90;58.00;;;;;;4935553;29;20549;-81
2023/01/04 08:33:19;;;;;;;0.97;0.87;;;21.90;58.00;;;;;;4926933;29;20457;-81
2023/01/04 08:35:47;;;;;;;1.00;1.00;;;21.90;58.00;;;;;;4925235;29;20465;-81
2023/01/04 08:38:15;;;;;;;1.23;1.13;;;21.90;57.90;;;;;;4936324;29;20598;-81
2023/01/04 08:41:06;;;;;;;1.53;1.30;;;21.90;58.10;;;;;;4935544;29;20471;-81
2023/01/04 08:43:54;;;;;;;0.90;0.90;;;21.90;58.20;;;;;;4931822;29;20456;-81
2023/01/04 08:46:22;;;;;;;0.87;0.83;;;21.90;58.20;;;;;;4929943;29;20465;-81
2023/01/04 08:48:52;;;;;;;0.90;0.90;;;21.80;58.10;;;;;;4930266;29;20460;-80
2023/01/04 08:51:20;;;;;;;0.83;0.80;;;21.80;58.20;;;;;;4936837;29;20940;-81
2023/01/04 08:53:48;;;;;;;1.37;1.27;;;21.80;58.10;;;;;;4923515;29;20472;-81
2023/01/04 08:56:17;;;;;;;1.47;1.37;;;21.80;57.90;;;;;;4927609;29;20899;-81
2023/01/04 08:58:46;;;;;;;1.33;1.23;;;21.80;58.00;;;;;;4931734;29;21029;-81
2023/01/04 09:01:14;;;;;;;1.30;1.20;;;21.80;58.00;;;;;;4923936;29;20474;-82
2023/01/04 09:03:42;;;;;;;1.17;1.10;;;21.80;57.90;;;;;;4926203;29;20483;-81
2023/01/04 09:06:12;;;;;;;1.23;1.20;;;21.80;58.00;;;;;;4930885;29;20499;-80
2023/01/04 09:08:42;;;;;;;1.50;1.40;;;21.80;58.00;;;;;;4928463;29;20464;-81
2023/01/04 09:11:13;;;;;;;1.67;1.57;;;21.80;57.90;;;;;;4921793;29;20461;-80
2023/01/04 09:13:43;;;;;;;1.30;1.20;;;21.80;57.90;;;;;;4932042;29;20532;-80
2023/01/04 09:16:14;;;;;;;1.40;1.30;;;21.80;58.00;;;;;;4930035;29;20462;-80
2023/01/04 09:18:43;;;;;;;1.43;1.30;;;21.70;58.10;;;;;;4927444;29;20912;-80
2023/01/04 09:21:13;;;;;;;1.37;1.27;;;21.80;58.00;;;;;;4925951;29;20464;-81
2023/01/04 09:23:42;;;;;;;1.50;1.40;;;21.80;58.00;;;;;;4931025;29;20467;-81
2023/01/04 09:26:13;;;;;;;1.50;1.40;;;21.80;58.10;;;;;;4928845;29;20922;-80
2023/01/04 09:28:42;;;;;;;1.53;1.43;;;21.80;58.10;;;;;;4931764;29;20471;-81
2023/01/04 09:31:12;;;;;;;1.53;1.00;;;21.80;57.90;;;;;;4927019;29;20471;-81
2023/01/04 09:33:41;;;;;;;1.20;1.13;;;21.90;57.80;;;;;;4928389;29;20472;-80
2023/01/04 09:36:29;;;;;;;1.13;1.03;;;21.90;58.00;;;;;;4931864;29;20540;-81
2023/01/04 09:38:57;;;;;;;1.03;1.03;;;21.90;58.00;;;;;;4928419;29;20521;-82
2023/01/04 09:41:27;;;;;;;1.50;1.40;;;21.90;58.10;;;;;;4927621;29;20453;-81
2023/01/04 09:44:01;;;;;;;0.83;0.83;;;21.90;58.10;;;;;;4930889;29;20455;-82
2023/01/04 09:46:37;;;;;;;1.43;1.33;;;21.90;58.00;;;;;;4925150;29;20562;-81
2023/01/04 09:49:17;;;;;;;0.93;0.93;;;21.80;58.20;;;;;;4928652;29;20893;-82
2023/01/04 09:51:57;;;;;;;1.10;1.10;;;21.90;58.30;;;;;;4928069;29;20976;-81
2023/01/04 09:54:32;;;;;;;1.83;1.67;;;21.80;58.40;;;;;;4931344;29;20451;-81
2023/01/04 09:57:00;;;;;;;1.73;1.50;;;21.80;58.40;;;;;;4927881;29;20472;-81
2023/01/04 09:59:33;;;;;;;1.00;1.00;;;21.80;58.40;;;;;;4917654;29;20504;-81
2023/01/04 10:02:04;;;;;;;1.30;1.20;;;21.80;58.40;;;;;;4930564;29;20457;-81
2023/01/04 10:04:44;;;;;;;1.63;1.53;;;21.80;58.30;;;;;;4926041;29;20453;-81
2023/01/04 10:07:20;;;;;;;1.73;1.20;;;21.70;58.50;;;;;;4925809;29;20882;-81
2023/01/04 10:09:48;;;;;;;1.33;1.23;;;21.70;58.50;;;;;;4930123;29;20502;-82
2023/01/04 10:12:32;;;;;;;2.13;1.60;;;21.70;58.50;;;;;;4928273;29;20870;-81
2023/01/04 10:15:20;;;;;;;1.27;1.27;;;21.70;58.70;;;;;;4925865;29;20536;-81
2023/01/04 10:18:02;;;;;;;2.00;1.80;;;21.70;58.60;;;;;;4926705;29;20452;-80
2023/01/04 10:21:07;;;;;;;5.83;1.70;;;21.60;58.50;;;;;;4929107;29;20832;-82
2023/01/04 10:24:12;;;;;;;1.63;1.50;;;21.60;58.70;;;;;;4931594;29;20453;-82
2023/01/04 10:26:46;;;;;;;1.97;1.47;;;21.70;58.60;;;;;;4924321;29;20467;-82
2023/01/04 10:29:38;;;;;;;1.40;1.30;;;21.70;58.50;;;;;;4927617;29;20499;-82
2023/01/04 10:32:19;;;;;;;1.90;1.23;;;21.70;58.50;;;;;;4925468;29;20528;-82
2023/01/04 10:34:48;;;;;;;4.43;1.67;;;21.80;58.50;;;;;;4930552;29;20488;-82
2023/01/04 10:37:20;;;;;;;1.60;1.00;;;21.80;58.50;;;;;;4927904;29;20575;-82
2023/01/04 10:39:54;;;;;;;1.60;1.50;;;21.90;58.60;;;;;;4927232;29;20566;-81
2023/01/04 10:42:32;;;;;;;1.70;1.60;;;21.90;58.60;;;;;;4927848;29;20802;-81
2023/01/04 10:45:13;;;;;;;1.40;1.30;;;21.90;58.50;;;;;;4926590;29;20478;-82
2023/01/04 10:47:54;;;;;;;4.50;1.23;;;22.00;58.70;;;;;;4927529;29;20501;-82
2023/01/04 10:50:30;;;;;;;2.30;2.13;;;22.00;58.60;;;;;;4928624;29;20536;-83
2023/01/04 10:53:04;;;;;;;1.40;1.30;;;22.00;58.60;;;;;;4927543;29;20498;-82
2023/01/04 10:55:38;;;;;;;1.60;1.20;;;22.00;58.70;;;;;;4944391;29;20457;-82
2023/01/04 10:58:14;;;;;;;1.87;1.53;;;22.00;58.90;;;;;;4925810;29;20560;-83
2023/01/04 11:00:45;;;;;;;1.53;1.43;;;22.00;59.10;;;;;;4927150;29;21500;-82
2023/01/04 11:03:20;;;;;;;1.43;1.33;;;22.00;59.10;;;;;;4928143;29;20469;-82
2023/01/04 11:05:53;;;;;;;1.40;1.30;;;22.00;59.20;;;;;;4926688;29;20464;-82
2023/01/04 11:08:24;;;;;;;2.40;1.37;;;22.00;59.20;;;;;;4927517;29;20468;-83
2023/01/04 11:10:55;;;;;;;1.40;1.30;;;22.00;59.40;;;;;;4929065;29;20484;-83
2023/01/04 11:13:24;;;;;;;1.27;1.17;;;22.00;59.40;;;;;;4926105;29;20523;-82
2023/01/04 11:15:53;;;;;;;1.30;1.20;;;22.00;59.30;;;;;;4922969;29;20554;-83
2023/01/04 11:18:23;;;;;;;1.47;1.37;;;22.00;59.60;;;;;;4928796;29;20963;-82
2023/01/04 11:20:52;;;;;;;1.90;1.40;;;22.00;59.40;;;;;;4928678;29;20543;-83
2023/01/04 11:23:20;;;;;;;4.60;1.33;;;21.90;59.40;;;;;;4930089;29;20487;-82
2023/01/04 11:25:52;;;;;;;1.80;1.70;;;21.90;59.50;;;;;;4929115;29;20590;-85
2023/01/04 11:28:28;;;;;;;1.83;1.07;;;21.90;59.20;;;;;;4928770;29;20824;-83
2023/01/04 11:31:05;;;;;;;2.03;1.03;;;21.90;59.20;;;;;;4930267;29;20552;-83
2023/01/04 11:33:52;;;;;;;1.43;1.33;;;21.90;59.30;;;;;;4931870;29;20455;-83
2023/01/04 11:36:35;;;;;;;1.47;1.37;;;21.90;59.20;;;;;;4931193;29;20451;-82
2023/01/04 11:39:05;;;;;;;1.50;1.40;;;21.80;59.20;;;;;;4929792;29;20590;-83
2023/01/04 11:41:33;;;;;;;1.30;1.20;;;21.80;59.00;;;;;;4930980;29;21033;-83
2023/01/04 11:44:04;;;;;;;2.47;1.27;;;21.80;58.90;;;;;;4926194;29;20475;-83
2023/01/04 11:46:34;;;;;;;1.33;1.23;;;21.80;59.00;;;;;;4924797;29;20465;-83
2023/01/04 11:49:04;;;;;;;1.07;1.03;;;21.90;59.00;;;;;;4922917;29;20515;-83
2023/01/04 11:51:38;;;;;;;4.07;1.50;;;21.90;59.00;;;;;;4931662;29;20472;-83
2023/01/04 11:54:18;;;;;;;3.43;1.40;;;22.00;59.00;;;;;;4924899;29;20884;-83
2023/01/04 11:57:02;;;;;;;1.67;1.43;;;22.00;58.90;;;;;;4933059;29;21086;-83
2023/01/04 11:59:38;;;;;;;4.07;2.00;;;22.10;59.10;;;;;;4928746;29;20488;-84
2023/01/04 12:02:22;;;;;;;1.60;1.27;;;22.30;58.80;;;;;;4926799;29;20482;-83
2023/01/04 12:05:20;;;;;;;1.20;1.10;;;22.40;58.70;;;;;;4935399;29;20459;-87
2023/01/04 12:07:57;;;;;;;1.63;1.23;;;22.50;58.60;;;;;;4936175;29;21039;-87
2023/01/04 12:10:27;;;;;;;1.20;1.20;;;22.60;58.30;;;;;;4954728;28;20559;-87
2023/01/04 12:13:00;;;;;;;2.27;1.70;;;22.70;58.20;;;;;;4957140;23;20498;-67
2023/01/04 12:15:35;;;;;;;2.60;1.83;;;22.80;58.40;;;;;;4926368;29;20516;-63
2023/01/04 12:18:11;;;;;;;2.07;1.53;;;22.90;58.60;;;;;;4931526;29;20452;-63
2023/01/04 12:20:40;;;;;;;2.17;1.40;;;22.90;58.70;;;;;;4932607;29;20968;-65
2023/01/04 12:23:12;;;;;;;8.50;2.13;;;22.90;58.80;;;;;;4937939;29;20529;-62
2023/01/04 12:25:44;;;;;;;4.73;1.70;;;22.90;58.80;;;;;;4935798;29;20464;-63
2023/01/04 12:28:29;;;;;;;4.60;1.73;;;22.90;59.10;;;;;;4929983;29;20473;-63
2023/01/04 12:31:32;;;;;;;6.70;2.10;;;23.00;59.00;;;;;;4927801;29;20457;-65
2023/01/04 12:34:41;;;;;;;3.47;2.03;;;22.90;59.00;;;;;;4932460;29;20475;-64
2023/01/04 12:37:31;;;;;;;3.60;2.07;;;23.00;59.00;;;;;;4928517;29;20452;-65
2023/01/04 12:40:02;;;;;;;2.33;1.70;;;23.00;59.20;;;;;;4929132;29;20514;-64
2023/01/04 12:42:30;;;;;;;3.10;1.93;;;23.10;59.30;;;;;;4927473;29;20858;-63
2023/01/04 12:45:13;;;;;;;4.73;2.07;;;23.10;59.20;;;;;;4930605;29;20442;-66
2023/01/04 12:50:31;;;;;;;6.60;2.00;;;23.10;59.10;;;;;;4932661;29;20489;-64
2023/01/04 12:53:04;;;;;;;3.07;1.80;;;23.00;59.40;;;;;;4933334;29;20454;-64
2023/01/04 12:55:55;;;;;;;3.23;2.00;;;23.00;59.40;;;;;;4925606;29;20553;-65
2023/01/04 12:58:41;;;;;;;2.53;1.70;;;22.90;59.40;;;;;;4927121;29;20551;-66
2023/01/04 13:01:29;;;;;;;3.30;1.80;;;22.90;59.40;;;;;;4928579;29;20474;-65
2023/01/04 13:04:00;;;;;;;6.37;2.27;;;22.80;59.70;;;;;;4927830;29;20568;-72
2023/01/04 13:06:42;;;;;;;5.03;2.90;;;22.70;59.80;;;;;;4928798;29;20464;-65
2023/01/04 13:09:18;;;;;;;6.23;2.67;;;22.70;59.60;;;;;;4930825;29;20480;-64
2023/01/04 13:12:14;;;;;;;8.20;4.67;;;22.70;59.70;;;;;;4922029;29;20461;-67
2023/01/04 13:14:47;;;;;;;12.03;3.83;;;22.60;59.70;;;;;;4926636;29;20555;-64
2023/01/04 13:17:21;;;;;;;7.80;3.60;;;22.60;59.90;;;;;;4929414;29;20571;-65
2023/01/04 13:19:51;;;;;;;12.53;4.57;;;22.60;60.10;;;;;;4928330;29;20606;-64
2023/01/04 13:22:24;;;;;;;11.30;5.00;;;22.60;60.10;;;;;;4926776;29;20453;-64
2023/01/04 13:24:58;;;;;;;8.50;4.10;;;22.60;60.30;;;;;;4929086;29;20465;-66
2023/01/04 13:27:28;;;;;;;9.93;3.97;;;22.60;60.20;;;;;;4927134;29;20453;-66
2023/01/04 13:29:57;;;;;;;10.37;4.60;;;22.60;60.20;;;;;;4929414;29;21023;-70
2023/01/04 13:32:28;;;;;;;12.13;5.07;;;22.60;60.30;;;;;;4925620;29;20475;-68
2023/01/04 13:35:01;;;;;;;10.43;4.50;;;22.60;60.30;;;;;;4934822;29;20481;-64
2023/01/04 13:37:38;;;;;;;8.10;4.30;;;22.60;60.00;;;;;;4928886;29;20493;-64
2023/01/04 13:40:22;;;;;;;10.70;4.70;;;22.60;60.30;;;;;;4928440;29;20488;-67
2023/01/04 13:43:05;;;;;;;8.87;4.40;;;22.60;60.50;;;;;;4925848;29;20465;-63
2023/01/04 13:45:49;;;;;;;9.93;4.53;;;22.50;60.60;;;;;;4925054;29;20460;-66
2023/01/04 13:48:21;;;;;;;8.43;3.80;;;22.50;60.50;;;;;;4927125;29;20455;-64
2023/01/04 13:51:00;;;;;;;12.30;5.30;;;22.50;60.60;;;;;;4930721;29;20886;-65
2023/01/04 13:53:30;;;;;;;11.73;5.00;;;22.50;60.70;;;;;;4922596;29;20536;-67
2023/01/04 13:56:01;;;;;;;9.17;4.30;;;22.40;60.60;;;;;;4927785;29;20465;-67
2023/01/04 13:58:32;;;;;;;9.37;4.73;;;22.40;60.70;;;;;;4923082;29;20468;-64
2023/01/04 14:01:06;;;;;;;15.73;4.57;;;22.40;60.70;;;;;;4924790;29;20537;-70
2023/01/04 14:03:40;;;;;;;14.33;4.60;;;22.40;60.80;;;;;;4926956;29;20453;-64
2023/01/04 14:06:17;;;;;;;11.10;4.33;;;22.40;60.90;;;;;;4921148;29;20463;-74